Pine Ridge Reservation, South Dakota
Current Conditions -  °F | °C
As of 1:52 PM on Saturday 22 Nov 2014 (Local Time) from KIEN Reporting Station
Scattered Clouds Scattered Clouds  
Wind Chill: 51°   Ceiling: Unl
Heat Index: 51°   Visibility: 10mi
Dew Point: 28°   Wind: 10mph
Humidity: 41%   Direction: 280°W
Pressure: 29.47"   Gusts: NA
Location:  43.3266°N, 102.736°W
Report Text: KIEN 222052Z AUTO 28009KT 10SM SCT120 11/M02 A2947 RMK AO2 SLP999 T01061022 56020
Loading
Personal Weather Stations






























Interactive Weather Map New forecast layout! Learn more

10-Day Weather Forecast

Advertisements
Track Severe Weather on mobile